Bruno, Canada
Current Conditions -  °F | °C
As of 4:00 PM on Wednesday 28 Jan 2015 (Local Time) from CYXE Reporting Station
Overcast Overcast  
Wind Chill: 11°   Ceiling: 1800
Heat Index: 25°   Visibility: 15mi
Dew Point: 19°   Wind: 17mph
Humidity: 80%   Direction: 310°NW
Pressure: 30.2"   Gusts: 26mph
Location:  52.27°N, 105.52°W
Report Text: CYXE 282200Z 31015G23KT 15SM OVC018 M04/M07 A3020 RMK SC8 SLP259
Loading
Personal Weather Stations






























Interactive Weather Map New forecast layout! Learn more

10-Day Weather Forecast

Advertisements
Track Severe Weather on mobile